Aeroporto :
LOGIN :

Iscrizione | Disclaimer

   EN    FR    IT 

 










Sommario :    VFR   VFR Marginale   IFR   IFR Intensivo   IFR Molto Intensivo
Visibilità : 
Base nubi : 
>= 8 km
>= 3000ft
5 / 8 km
1000 / 3000 ft
1500m / 5 km
500 / 1000 ft
800 / 1500m
200 / 500 ft
< 800m
< 200 ft
Simboli :   Temporali  Nebbia  Neve Forte  Precipitazioni Forti  Vento > 20 kt
SIGMETs :   Varie  Temporali  Ghiacco  Turbolenza  Onda orograficha  Ceneri Vulcaniche






- Altitudine del aeroporto : 265 ft
- Codice IATA : BJY


LYBT - Batajnica Air Base

ULTIMO METAR :
  • 252330Z 25006KT 220V280 CAVOK 11/10 Q1023 NOSIG

METARs OBSOLETI :
  • 252300Z 24006KT CAVOK 12/10 Q1023 NOSIG
  • 252230Z 25008KT CAVOK 12/10 Q1023 NOSIG
  • 252200Z 24009KT 210V270 CAVOK 12/10 Q1023 NOSIG
  • 252130Z 24008KT CAVOK 12/10 Q1023 NOSIG
  • 252100Z 24009KT 9999 SCT040 13/09 Q1023 NOSIG

TAF TAF LYBT
Valido dal 26 a 00 ore il 27 a 00 ore UTC


252300Z 2600/2624 32008KT 9999 SCT040 TX16/2613Z TN08/2603Z
TEMPO 2609/2618 5000 SHRA SCT030TCU BKN035
TEMPO 2611/2617 32015G25KT 3000 TSRA SCT015 SCT027CB BKN035



MetMap, La meteo Aeronautica in un colpo d'occhio ! - Copyright ORBIFLY Dicembre 2007 - Disclaimer

ORBIFLY MET'MAP TEAM :

Programmazione e sviluppo : Alexandra Zaïnal
Concezione : Baudouin d'Aumeries
Aiuto per la programmazione : Marc-Olivier Méhu
Supporto tecnico e logistico : Manuel Goepfert
Aiuto per la traduzione : Arnaldo La Scala

Contatto : metmap@orbifly.com




FONTI E CREDITI :

   NOAA